createdAt,value
2023-04-21T00:00:06.977Z,1005.42
2023-04-21T00:00:31.445Z,1005.42
2023-04-21T00:01:09.712Z,1005.42
2023-04-21T00:01:41.627Z,1005.52
2023-04-21T00:02:07.296Z,1005.52
2023-04-21T00:02:36.144Z,1005.21
2023-04-21T00:02:55.552Z,1005.21
2023-04-21T00:03:33.702Z,1005.21
2023-04-21T00:03:59.625Z,1005.32
2023-04-21T00:04:31.619Z,1005.32
2023-04-21T00:05:10.008Z,1005.21
2023-04-21T00:05:41.885Z,1005.42
2023-04-21T00:06:13.173Z,1005.42
2023-04-21T00:06:35.804Z,1005.32
2023-04-21T00:06:58.120Z,1005.32
2023-04-21T00:07:27.399Z,1005.32
2023-04-21T00:08:05.487Z,1005.42
2023-04-21T00:08:38.714Z,1005.42
2023-04-21T00:09:03.301Z,1005.42
2023-04-21T00:09:34.896Z,1005.32
2023-04-21T00:10:14.260Z,1005.32
2023-04-21T00:10:34.963Z,1005.32
2023-04-21T00:10:57.428Z,1005.32
2023-04-21T00:11:27.330Z,1005.32
2023-04-21T00:11:59.281Z,1005.62
2023-04-21T00:12:31.448Z,1005.62
2023-04-21T00:13:03.231Z,1005.21
2023-04-21T00:13:41.395Z,1005.32
2023-04-21T00:14:07.363Z,1005.32
2023-04-21T00:14:35.092Z,1005.42
2023-04-21T00:15:01.693Z,1005.42
2023-04-21T00:15:27.340Z,1005.42
2023-04-21T00:16:05.543Z,1005.42
2023-04-21T00:16:32.196Z,1005.42
2023-04-21T00:17:09.376Z,1005.52
2023-04-21T00:17:34.953Z,1005.42
2023-04-21T00:18:08.112Z,1005.42
2023-04-21T00:18:41.277Z,1005.32
2023-04-21T00:19:17.608Z,1005.32
2023-04-21T00:19:40.841Z,1005.52
2023-04-21T00:19:59.333Z,1005.52
2023-04-21T00:20:38.004Z,1005.52
2023-04-21T00:21:03.235Z,1005.32
2023-04-21T00:21:41.382Z,1005.52
2023-04-21T00:22:08.509Z,1005.52
2023-04-21T00:22:34.956Z,1005.32
2023-04-21T00:23:01.261Z,1005.32
2023-04-21T00:23:27.967Z,1005.32
2023-04-21T00:23:59.360Z,1005.21
2023-04-21T00:24:37.580Z,1005.21
2023-04-21T00:25:03.480Z,1005.42
2023-04-21T00:25:34.922Z,1005.42
2023-04-21T00:26:14.265Z,1005.42
2023-04-21T00:26:36.928Z,1005.21
2023-04-21T00:26:59.648Z,1005.21
2023-04-21T00:27:27.287Z,1005.21
2023-04-21T00:27:59.328Z,1005.32
2023-04-21T00:28:38.764Z,1005.32
2023-04-21T00:29:03.242Z,1005.32
2023-04-21T00:29:34.877Z,1005.32
2023-04-21T00:30:08.469Z,1005.32
2023-04-21T00:30:35.000Z,1005.32
2023-04-21T00:30:57.450Z,1005.32
2023-04-21T00:31:33.428Z,1005.32
2023-04-21T00:32:05.265Z,1005.42
2023-04-21T00:32:31.470Z,1005.42
2023-04-21T00:33:10.359Z,1005.21
2023-04-21T00:33:34.933Z,1005.42
2023-04-21T00:34:07.535Z,1005.42
2023-04-21T00:34:36.439Z,1005.52
2023-04-21T00:34:59.035Z,1005.52
2023-04-21T00:35:33.760Z,1005.52
2023-04-21T00:35:59.437Z,1005.21
2023-04-21T00:36:32.098Z,1005.21
2023-04-21T00:37:09.436Z,1005.52
2023-04-21T00:37:35.538Z,1005.42
2023-04-21T00:38:07.594Z,1005.42
2023-04-21T00:38:40.836Z,1005.32
2023-04-21T00:39:12.177Z,1005.32
2023-04-21T00:39:34.878Z,1005.32
2023-04-21T00:39:59.347Z,1005.32
2023-04-21T00:40:38.411Z,1005.32
2023-04-21T00:41:03.258Z,1005.52
2023-04-21T00:41:40.865Z,1005.42
2023-04-21T00:42:08.203Z,1005.42
2023-04-21T00:42:37.281Z,1005.32
2023-04-21T00:42:55.259Z,1005.32
2023-04-21T00:43:34.006Z,1005.32
2023-04-21T00:43:59.370Z,1005.21
2023-04-21T00:44:31.383Z,1005.21
2023-04-21T00:45:04.438Z,1005.32
2023-04-21T00:45:40.977Z,1005.32
2023-04-21T00:46:13.617Z,1005.32
2023-04-21T00:46:58.829Z,1005.21
2023-04-21T00:47:27.488Z,1005.21
2023-04-21T00:48:05.429Z,1005.32
2023-04-21T00:48:37.953Z,1005.32
2023-04-21T00:49:09.263Z,1005.11
2023-04-21T00:49:40.842Z,1005.11
2023-04-21T00:50:08.306Z,1005.11
2023-04-21T00:50:41.235Z,1005.32
2023-04-21T00:51:11.253Z,1005.32
2023-04-21T00:51:41.315Z,1005.01
2023-04-21T00:52:03.873Z,1005.01
2023-04-21T00:52:37.257Z,1005.01
2023-04-21T00:53:09.414Z,1005.32
2023-04-21T00:53:34.919Z,1005.11
2023-04-21T00:54:08.169Z,1005.11
2023-04-21T00:54:40.859Z,1005.21
2023-04-21T00:55:11.452Z,1005.21
2023-04-21T00:55:35.708Z,1005.01
2023-04-21T00:56:05.081Z,1005.01
2023-04-21T00:56:31.449Z,1005.01
2023-04-21T00:57:10.292Z,1005.21
2023-04-21T00:57:40.819Z,1005.21
2023-04-21T00:58:13.356Z,1005.21
2023-04-21T00:58:36.693Z,1004.91
2023-04-21T00:59:11.301Z,1004.91
2023-04-21T00:59:35.458Z,1005.01
2023-04-21T01:00:06.549Z,1005.01
2023-04-21T01:00:37.087Z,1005.01
2023-04-21T01:01:09.596Z,1005.01
2023-04-21T01:01:35.660Z,1005.01
2023-04-21T01:02:13.463Z,1005.01
2023-04-21T01:02:35.899Z,1005.11
2023-04-21T01:02:59.717Z,1005.11
2023-04-21T01:03:33.737Z,1005.11
2023-04-21T01:03:59.569Z,1005.32
2023-04-21T01:04:37.654Z,1005.32
2023-04-21T01:05:03.541Z,1005.11
2023-04-21T01:05:41.130Z,1005.21
2023-04-21T01:06:07.220Z,1005.21
2023-04-21T01:06:34.955Z,1005.11
2023-04-21T01:06:57.475Z,1005.11
2023-04-21T01:07:27.314Z,1005.11
2023-04-21T01:07:59.491Z,1005.32
2023-04-21T01:08:31.396Z,1005.32
2023-04-21T01:09:09.550Z,1005.32
2023-04-21T01:09:35.448Z,1005.11
2023-04-21T01:10:07.408Z,1005.11
2023-04-21T01:10:35.478Z,1005.11
2023-04-21T01:10:58.752Z,1005.11
2023-04-21T01:11:27.350Z,1005.11
2023-04-21T01:12:02.857Z,1005.11
2023-04-21T01:12:38.666Z,1005.11
2023-04-21T01:13:03.288Z,1005.01
2023-04-21T01:13:41.345Z,1005.21
2023-04-21T01:14:13.285Z,1005.21
2023-04-21T01:14:36.154Z,1005.11
2023-04-21T01:14:55.293Z,1005.11
2023-04-21T01:15:33.487Z,1005.11
2023-04-21T01:16:05.699Z,1005.42
2023-04-21T01:16:32.125Z,1005.42
2023-04-21T01:17:03.449Z,1005.21
2023-04-21T01:17:41.261Z,1005.21
2023-04-21T01:18:08.481Z,1005.21
2023-04-21T01:18:40.864Z,1005.42
2023-04-21T01:19:17.858Z,1005.42
2023-04-21T01:19:40.694Z,1005.32
2023-04-21T01:19:59.236Z,1005.32
2023-04-21T01:20:32.198Z,1005.32
2023-04-21T01:21:09.988Z,1005.32
2023-04-21T01:21:40.810Z,1005.21
2023-04-21T01:22:13.497Z,1005.21
2023-04-21T01:22:36.875Z,1005.21
2023-04-21T01:23:17.216Z,1005.21
2023-04-21T01:23:34.939Z,1005.21
2023-04-21T01:24:06.428Z,1005.21
2023-04-21T01:24:37.445Z,1005.21
2023-04-21T01:25:03.411Z,1005.21
2023-04-21T01:25:40.933Z,1005.11
2023-04-21T01:26:13.264Z,1005.11
2023-04-21T01:26:41.934Z,1005.11
2023-04-21T01:27:11.268Z,1005.11
2023-04-21T01:27:34.917Z,1005.32
2023-04-21T01:28:05.240Z,1005.32
2023-04-21T01:28:37.256Z,1005.32
2023-04-21T01:29:03.926Z,1005.01
2023-04-21T01:29:35.628Z,1005.21
2023-04-21T01:30:13.591Z,1005.21
2023-04-21T01:30:40.915Z,1005.21
2023-04-21T01:31:12.187Z,1005.21
2023-04-21T01:31:35.288Z,1005.11
2023-04-21T01:32:21.198Z,1005.11
2023-04-21T01:32:43.789Z,1005.11
2023-04-21T01:33:07.055Z,1005.11
2023-04-21T01:33:35.259Z,1005.42
2023-04-21T01:34:13.949Z,1005.42
2023-04-21T01:34:40.869Z,1005.21
2023-04-21T01:35:11.402Z,1005.21
2023-04-21T01:35:41.827Z,1005.11
2023-04-21T01:36:04.352Z,1005.11
2023-04-21T01:36:31.469Z,1005.11
2023-04-21T01:37:09.652Z,1004.91
2023-04-21T01:37:35.215Z,1005.21
2023-04-21T01:38:14.368Z,1005.21
2023-04-21T01:38:34.998Z,1004.91
2023-04-21T01:38:57.460Z,1004.91
2023-04-21T01:39:27.303Z,1004.91
2023-04-21T01:40:05.504Z,1005.11
2023-04-21T01:40:31.428Z,1005.11
2023-04-21T01:41:10.002Z,1005.11
2023-04-21T01:41:34.979Z,1005.21
2023-04-21T01:42:07.241Z,1005.21
2023-04-21T01:42:41.731Z,1005.01
2023-04-21T01:43:11.282Z,1005.01
2023-04-21T01:43:40.916Z,1005.11
2023-04-21T01:43:59.393Z,1005.11
2023-04-21T01:44:37.450Z,1005.11
2023-04-21T01:45:09.462Z,1005.21
2023-04-21T01:45:40.903Z,1005.11
2023-04-21T01:46:07.369Z,1005.11
2023-04-21T01:46:41.726Z,1005.21
2023-04-21T01:47:11.267Z,1005.21
2023-04-21T01:47:34.972Z,1005.11
2023-04-21T01:47:59.382Z,1005.11
2023-04-21T01:48:31.666Z,1005.11
2023-04-21T01:49:09.727Z,1005.11
2023-04-21T01:49:34.908Z,1005.21
2023-04-21T01:50:13.816Z,1005.21
2023-04-21T01:50:36.690Z,1005.11
2023-04-21T01:51:01.308Z,1005.11
2023-04-21T01:51:27.402Z,1005.11
2023-04-21T01:52:16.029Z,1005.32
2023-04-21T01:52:40.840Z,1005.11
2023-04-21T01:53:03.436Z,1005.11
2023-04-21T01:53:35.753Z,1005.11
2023-04-21T01:54:13.448Z,1005.11
2023-04-21T01:54:35.045Z,1005.21
2023-04-21T01:54:57.972Z,1005.21
2023-04-21T01:55:33.314Z,1005.21
2023-04-21T01:56:05.515Z,1005.21
2023-04-21T01:56:38.274Z,1005.21
2023-04-21T01:57:03.308Z,1005.32
2023-04-21T01:57:40.818Z,1005.01
2023-04-21T01:58:14.289Z,1005.01
2023-04-21T01:58:34.944Z,1005.01
2023-04-21T01:58:57.481Z,1005.01
2023-04-21T01:59:33.380Z,1005.01
2023-04-21T01:59:59.393Z,1005.11
2023-04-21T02:00:31.712Z,1005.11
2023-04-21T02:01:04.195Z,1005.32
2023-04-21T02:01:41.178Z,1005.01
2023-04-21T02:02:07.368Z,1005.01
2023-04-21T02:02:49.459Z,1005.21
2023-04-21T02:03:12.038Z,1005.21
2023-04-21T02:03:35.183Z,1005.21
2023-04-21T02:04:05.425Z,1005.21
2023-04-21T02:04:32.236Z,1005.21
2023-04-21T02:05:03.459Z,1005.11
2023-04-21T02:05:41.032Z,1004.91
2023-04-21T02:06:13.973Z,1004.91
2023-04-21T02:06:36.909Z,1005.11
2023-04-21T02:07:01.169Z,1005.11
2023-04-21T02:07:34.019Z,1005.11
2023-04-21T02:08:05.157Z,1005.21
2023-04-21T02:08:37.641Z,1005.21
2023-04-21T02:09:03.299Z,1005.11
2023-04-21T02:09:41.025Z,1005.11
2023-04-21T02:10:08.023Z,1005.11
2023-04-21T02:10:34.963Z,1005.01
2023-04-21T02:10:57.781Z,1005.01
2023-04-21T02:11:27.547Z,1005.01
2023-04-21T02:12:00.171Z,1005.11
2023-04-21T02:12:39.327Z,1005.21
2023-04-21T02:13:25.265Z,1005.21
2023-04-21T02:13:58.140Z,1005.11
2023-04-21T02:14:29.392Z,1005.11
2023-04-21T02:15:01.931Z,1005.11
2023-04-21T02:15:28.218Z,1005.11
2023-04-21T02:16:13.577Z,1005.11
2023-04-21T02:16:32.701Z,1005.11
2023-04-21T02:17:03.548Z,1004.91
2023-04-21T02:17:41.764Z,1005.01
2023-04-21T02:18:07.313Z,1005.01
2023-04-21T02:18:41.233Z,1005.11
2023-04-21T02:19:17.925Z,1005.11
2023-04-21T02:19:40.355Z,1005.11
2023-04-21T02:20:04.278Z,1005.11
2023-04-21T02:20:31.424Z,1005.11
2023-04-21T02:21:03.257Z,1005.01
2023-04-21T02:21:41.826Z,1005.21
2023-04-21T02:22:07.379Z,1005.21
2023-04-21T02:22:34.967Z,1005.11
2023-04-21T02:23:01.368Z,1005.11
2023-04-21T02:23:27.307Z,1005.11
2023-04-21T02:24:00.044Z,1005.32
2023-04-21T02:24:31.419Z,1005.32
2023-04-21T02:25:04.134Z,1005.21
2023-04-21T02:25:40.917Z,1005.01
2023-04-21T02:26:07.809Z,1005.01
2023-04-21T02:26:41.421Z,1005.11
2023-04-21T02:27:11.254Z,1005.11
2023-04-21T02:27:40.942Z,1004.91
2023-04-21T02:27:59.374Z,1004.91
2023-04-21T02:28:38.337Z,1004.91
2023-04-21T02:29:03.256Z,1005.01
2023-04-21T02:29:34.962Z,1004.91
2023-04-21T02:30:13.919Z,1004.91
2023-04-21T02:30:42.582Z,1004.84
2023-04-21T02:31:17.864Z,1004.84
2023-04-21T02:31:40.470Z,1005.01
2023-04-21T02:32:07.797Z,1005.01
2023-04-21T02:32:31.617Z,1005.01
2023-04-21T02:33:03.826Z,1005.11
2023-04-21T02:33:35.396Z,1005.11
2023-04-21T02:34:08.290Z,1005.11
2023-04-21T02:34:35.455Z,1005.01
2023-04-21T02:34:58.349Z,1005.01
2023-04-21T02:35:33.750Z,1005.01
2023-04-21T02:36:05.489Z,1004.84
2023-04-21T02:36:37.265Z,1004.84
2023-04-21T02:37:03.270Z,1004.91
2023-04-21T02:37:41.651Z,1005.01
2023-04-21T02:38:07.296Z,1005.01
2023-04-21T02:38:41.305Z,1005.11
2023-04-21T02:39:11.284Z,1005.11
2023-04-21T02:39:41.138Z,1004.84
2023-04-21T02:40:07.051Z,1004.84
2023-04-21T02:40:31.635Z,1004.84
2023-04-21T02:41:03.718Z,1005.21
2023-04-21T02:41:34.963Z,1004.91
2023-04-21T02:42:13.409Z,1004.91
2023-04-21T02:42:36.431Z,1004.91
2023-04-21T02:43:01.156Z,1004.91
2023-04-21T02:43:27.323Z,1004.91
2023-04-21T02:44:05.522Z,1005.01
2023-04-21T02:44:38.348Z,1005.01
2023-04-21T02:45:03.588Z,1004.74
2023-04-21T02:45:35.010Z,1004.84
2023-04-21T02:46:14.228Z,1004.84
2023-04-21T02:46:36.679Z,1004.84
2023-04-21T02:46:55.388Z,1004.84
2023-04-21T02:47:28.087Z,1004.84
2023-04-21T02:47:59.516Z,1005.01
2023-04-21T02:48:32.196Z,1005.01
2023-04-21T02:49:03.299Z,1004.84
2023-04-21T02:49:41.229Z,1004.91
2023-04-21T02:50:07.541Z,1004.91
2023-04-21T02:50:35.695Z,1005.01
2023-04-21T02:50:58.542Z,1005.01
2023-04-21T02:51:33.196Z,1005.01
2023-04-21T02:51:59.314Z,1004.91
2023-04-21T02:52:32.099Z,1004.91
2023-04-21T02:53:13.267Z,1004.74
2023-04-21T02:53:40.849Z,1005.11
2023-04-21T02:54:08.041Z,1005.11
2023-04-21T02:54:40.837Z,1004.91
2023-04-21T02:55:17.721Z,1004.91
2023-04-21T02:55:41.743Z,1004.91
2023-04-21T02:56:15.324Z,1004.91
2023-04-21T02:56:44.416Z,1005.11
2023-04-21T02:57:07.633Z,1005.11
2023-04-21T02:57:34.924Z,1005.01
2023-04-21T02:58:08.342Z,1005.01
2023-04-21T02:58:41.456Z,1004.84
2023-04-21T02:59:11.305Z,1004.84
2023-04-21T02:59:40.929Z,1005.01
2023-04-21T03:00:04.255Z,1005.01
2023-04-21T03:00:38.313Z,1005.01
2023-04-21T03:01:09.240Z,1005.11
2023-04-21T03:01:34.915Z,1004.84
2023-04-21T03:02:14.479Z,1004.84
2023-04-21T03:02:37.025Z,1005.01
2023-04-21T03:02:55.424Z,1005.01
2023-04-21T03:03:33.603Z,1005.01
2023-04-21T03:04:06.188Z,1004.84
2023-04-21T03:04:31.550Z,1004.84
2023-04-21T03:05:03.662Z,1005.01
2023-04-21T03:05:41.751Z,1005.01
2023-04-21T03:06:07.253Z,1005.01
2023-04-21T03:06:41.213Z,1005.11
2023-04-21T03:07:12.185Z,1005.11
2023-04-21T03:07:34.954Z,1004.84
2023-04-21T03:07:59.291Z,1004.84
2023-04-21T03:08:31.387Z,1004.84
2023-04-21T03:09:09.674Z,1005.11
2023-04-21T03:09:36.426Z,1005.11
2023-04-21T03:10:07.390Z,1005.11
2023-04-21T03:10:40.921Z,1004.84
2023-04-21T03:11:17.302Z,1004.84
2023-04-21T03:11:49.537Z,1005.01
2023-04-21T03:12:16.019Z,1005.01
2023-04-21T03:12:39.579Z,1005.01
2023-04-21T03:13:03.367Z,1005.01
2023-04-21T03:13:41.036Z,1005.11
2023-04-21T03:14:08.037Z,1005.11
2023-04-21T03:14:41.160Z,1005.01
2023-04-21T03:15:11.927Z,1005.01
2023-04-21T03:15:41.770Z,1005.01
2023-04-21T03:16:05.698Z,1005.01
2023-04-21T03:16:31.382Z,1005.01
2023-04-21T03:17:03.961Z,1004.74
2023-04-21T03:17:40.944Z,1005.01
2023-04-21T03:18:13.365Z,1005.01
2023-04-21T03:18:36.092Z,1004.84
2023-04-21T03:18:58.782Z,1004.84
2023-04-21T03:19:33.586Z,1004.84
2023-04-21T03:19:59.421Z,1004.91
2023-04-21T03:20:38.472Z,1004.91
2023-04-21T03:21:03.343Z,1004.84
2023-04-21T03:21:41.123Z,1004.84
2023-04-21T03:22:14.400Z,1004.84
2023-04-21T03:22:40.798Z,1004.91
2023-04-21T03:23:17.633Z,1004.91
2023-04-21T03:23:41.418Z,1004.91
2023-04-21T03:24:04.017Z,1004.91
2023-04-21T03:24:31.372Z,1004.91
2023-04-21T03:25:03.578Z,1004.91
2023-04-21T03:25:35.759Z,1004.84
2023-04-21T03:26:13.433Z,1004.84
2023-04-21T03:26:35.944Z,1004.84
2023-04-21T03:26:59.570Z,1004.84
2023-04-21T03:27:27.356Z,1004.84
2023-04-21T03:27:59.319Z,1004.74
2023-04-21T03:28:38.226Z,1004.74
2023-04-21T03:29:03.305Z,1004.74
2023-04-21T03:29:41.182Z,1004.74
2023-04-21T03:30:14.460Z,1004.74
2023-04-21T03:30:36.830Z,1004.74
2023-04-21T03:31:43.033Z,1004.74
2023-04-21T03:32:49.393Z,1004.74
2023-04-21T03:33:55.587Z,1004.74
2023-04-21T03:35:01.924Z,1004.74
2023-04-21T03:36:08.111Z,1004.74
2023-04-21T03:36:24.809Z,1004.74
2023-04-21T03:36:53.468Z,1004.74
2023-04-21T03:37:19.327Z,1004.74
2023-04-21T03:37:51.283Z,1004.74
2023-04-21T03:38:29.847Z,1004.74
2023-04-21T03:38:57.599Z,1004.74
2023-04-21T03:39:27.371Z,1004.74
2023-04-21T03:40:06.505Z,1004.74
2023-04-21T03:40:31.523Z,1004.74
2023-04-21T03:41:09.213Z,1004.64
2023-04-21T03:41:35.013Z,1004.64
2023-04-21T03:42:07.322Z,1004.64
2023-04-21T03:42:41.845Z,1004.64
2023-04-21T03:43:11.360Z,1004.64
2023-04-21T03:43:41.089Z,1004.84
2023-04-21T03:44:00.140Z,1004.84
2023-04-21T03:44:37.771Z,1004.84
2023-04-21T03:45:10.574Z,1004.84
2023-04-21T03:45:41.105Z,1004.84
2023-04-21T03:46:07.275Z,1004.84
2023-04-21T03:46:35.877Z,1004.91
2023-04-21T03:46:58.099Z,1004.91
2023-04-21T03:47:33.539Z,1004.91
2023-04-21T03:48:05.754Z,1004.84
2023-04-21T03:48:32.304Z,1004.84
2023-04-21T03:49:18.097Z,1004.84
2023-04-21T03:49:34.965Z,1004.74
2023-04-21T03:50:13.509Z,1004.74
2023-04-21T03:50:36.619Z,1004.91
2023-04-21T03:51:02.023Z,1004.91
2023-04-21T03:51:33.290Z,1004.91
2023-04-21T03:52:02.226Z,1004.74
2023-04-21T03:52:32.009Z,1004.74
2023-04-21T03:53:03.349Z,1004.74
2023-04-21T03:53:34.937Z,1004.74
2023-04-21T03:54:07.289Z,1004.74
2023-04-21T03:54:35.020Z,1004.91
2023-04-21T03:54:57.989Z,1004.91
2023-04-21T03:55:33.373Z,1004.91
2023-04-21T03:55:59.296Z,1004.64
2023-04-21T03:56:38.346Z,1004.64
2023-04-21T03:57:09.172Z,1004.84
2023-04-21T03:57:34.922Z,1004.84
2023-04-21T03:58:14.395Z,1004.84
2023-04-21T03:58:40.958Z,1004.64
2023-04-21T03:59:11.245Z,1004.64
2023-04-21T03:59:41.560Z,1004.84
2023-04-21T04:00:15.773Z,1004.84
2023-04-21T04:00:40.982Z,1004.84
2023-04-21T04:01:04.036Z,1004.84
2023-04-21T04:01:34.980Z,1004.91
2023-04-21T04:02:07.324Z,1004.91
2023-04-21T04:02:41.954Z,1004.74
2023-04-21T04:03:20.465Z,1004.74
2023-04-21T04:03:44.262Z,1004.84
2023-04-21T04:04:05.353Z,1004.84
2023-04-21T04:04:31.808Z,1004.84
2023-04-21T04:05:03.617Z,1004.91
2023-04-21T04:05:37.591Z,1004.84
2023-04-21T04:06:13.568Z,1004.84
2023-04-21T04:06:35.992Z,1004.84
2023-04-21T04:06:59.538Z,1004.84
2023-04-21T04:07:27.365Z,1004.84
2023-04-21T04:07:59.421Z,1004.91
2023-04-21T04:08:32.177Z,1004.91
2023-04-21T04:09:09.416Z,1004.84
2023-04-21T04:09:35.861Z,1004.84
2023-04-21T04:10:13.745Z,1004.84
2023-04-21T04:10:36.001Z,1004.84
2023-04-21T04:11:01.990Z,1004.84
2023-04-21T04:11:27.378Z,1004.84
2023-04-21T04:11:59.275Z,1004.74
2023-04-21T04:12:45.334Z,1005.01
2023-04-21T04:13:07.752Z,1005.01
2023-04-21T04:13:41.132Z,1004.74
2023-04-21T04:14:07.311Z,1004.74
2023-04-21T04:14:42.022Z,1004.91
2023-04-21T04:15:17.597Z,1004.91
2023-04-21T04:15:34.958Z,1004.74
2023-04-21T04:15:59.540Z,1004.74
2023-04-21T04:16:31.516Z,1004.74
2023-04-21T04:17:09.634Z,1004.74
2023-04-21T04:17:40.996Z,1004.91
2023-04-21T04:18:07.300Z,1004.91
2023-04-21T04:18:42.044Z,1004.91
2023-04-21T04:19:17.264Z,1004.91
2023-04-21T04:19:39.996Z,1004.91
2023-04-21T04:20:02.501Z,1004.91
2023-04-21T04:20:31.717Z,1004.91
2023-04-21T04:21:03.302Z,1004.84
2023-04-21T04:21:42.114Z,1004.74
2023-04-21T04:22:07.626Z,1004.74
2023-04-21T04:22:35.124Z,1004.74
2023-04-21T04:23:01.253Z,1004.74
2023-04-21T04:23:27.318Z,1004.74
2023-04-21T04:23:59.338Z,1004.84
2023-04-21T04:24:32.010Z,1004.84
2023-04-21T04:25:10.528Z,1004.84
2023-04-21T04:25:35.750Z,1004.91
2023-04-21T04:26:08.283Z,1004.91
2023-04-21T04:26:41.523Z,1004.84
2023-04-21T04:27:11.414Z,1004.84
2023-04-21T04:27:40.881Z,1004.74
2023-04-21T04:28:03.574Z,1004.74
2023-04-21T04:28:32.125Z,1004.74
2023-04-21T04:29:09.694Z,1004.74
2023-04-21T04:29:35.018Z,1004.91
2023-04-21T04:30:14.013Z,1004.91
2023-04-21T04:30:40.990Z,1004.91
2023-04-21T04:31:18.636Z,1004.91
2023-04-21T04:31:41.485Z,1004.74
2023-04-21T04:32:03.941Z,1004.74
2023-04-21T04:32:37.558Z,1004.74
2023-04-21T04:33:03.712Z,1004.91
2023-04-21T04:33:41.906Z,1004.84
2023-04-21T04:34:13.265Z,1004.84
2023-04-21T04:34:35.145Z,1005.01
2023-04-21T04:34:55.537Z,1005.01
2023-04-21T04:35:33.820Z,1005.01
2023-04-21T04:36:05.360Z,1004.91
2023-04-21T04:36:37.468Z,1004.91
2023-04-21T04:37:09.858Z,1004.84
2023-04-21T04:37:41.783Z,1004.74
2023-04-21T04:38:07.458Z,1004.74
2023-04-21T04:38:35.261Z,1004.54
2023-04-21T04:39:01.565Z,1004.54
2023-04-21T04:39:27.462Z,1004.54
2023-04-21T04:40:06.209Z,1004.84
2023-04-21T04:40:38.405Z,1004.84
2023-04-21T04:41:03.527Z,1004.84
2023-04-21T04:41:35.090Z,1004.64
2023-04-21T04:42:36.897Z,1005.11
2023-04-21T04:43:01.595Z,1005.11
2023-04-21T04:43:33.691Z,1005.11
2023-04-21T04:44:06.463Z,1004.74
2023-04-21T04:44:37.350Z,1004.74
2023-04-21T04:45:19.746Z,1005.11
2023-04-21T04:45:57.909Z,1004.91
2023-04-21T04:46:23.528Z,1004.91
2023-04-21T04:46:47.137Z,1005.11
2023-04-21T04:47:17.331Z,1005.11
2023-04-21T04:47:39.960Z,1005.01
2023-04-21T04:48:03.345Z,1005.01
2023-04-21T04:48:37.919Z,1005.01
2023-04-21T04:49:03.463Z,1004.91
2023-04-21T04:49:41.816Z,1004.84
2023-04-21T04:50:07.616Z,1004.84
2023-04-21T04:50:35.210Z,1004.84
2023-04-21T04:50:57.848Z,1004.84
2023-04-21T04:51:27.486Z,1004.84
2023-04-21T04:52:05.343Z,1004.84
2023-04-21T04:52:33.267Z,1004.84
2023-04-21T04:53:09.949Z,1004.91
2023-04-21T04:53:35.166Z,1004.91
2023-04-21T04:54:13.577Z,1004.91
2023-04-21T04:54:41.177Z,1004.91
2023-04-21T04:55:11.723Z,1004.91
2023-04-21T04:55:35.907Z,1004.74
2023-04-21T04:55:59.660Z,1004.74
2023-04-21T04:56:37.676Z,1004.74
2023-04-21T04:57:03.583Z,1004.74
2023-04-21T04:57:35.173Z,1004.84
2023-04-21T04:58:07.440Z,1004.84
2023-04-21T04:58:41.317Z,1004.84
2023-04-21T04:59:17.552Z,1004.84
2023-04-21T04:59:43.447Z,1004.84
2023-04-21T05:00:15.997Z,1004.84
2023-04-21T05:00:41.682Z,1004.84
2023-04-21T05:01:04.369Z,1004.84
2023-04-21T05:01:41.208Z,1004.91
2023-04-21T05:02:07.470Z,1004.91
2023-04-21T05:02:35.510Z,1004.84
2023-04-21T05:02:55.523Z,1004.84
2023-04-21T05:03:33.925Z,1004.84
2023-04-21T05:03:59.700Z,1004.74
2023-04-21T05:04:37.649Z,1004.74
2023-04-21T05:05:10.894Z,1004.84
2023-04-21T05:05:41.250Z,1004.91
2023-04-21T05:06:13.732Z,1004.91
2023-04-21T05:06:36.894Z,1005.11
2023-04-21T05:07:01.321Z,1005.11
2023-04-21T05:07:33.244Z,1005.11
2023-04-21T05:08:06.229Z,1004.64
2023-04-21T05:08:37.357Z,1004.64
2023-04-21T05:09:03.499Z,1004.91
2023-04-21T05:09:36.487Z,1005.01
2023-04-21T05:10:07.633Z,1005.01
2023-04-21T05:10:35.128Z,1005.01
2023-04-21T05:10:58.879Z,1005.01
2023-04-21T05:11:27.533Z,1005.01
2023-04-21T05:11:59.509Z,1004.91
2023-04-21T05:12:38.548Z,1004.91
2023-04-21T05:13:09.576Z,1005.01
2023-04-21T05:13:37.442Z,1004.91
2023-04-21T05:14:09.293Z,1004.91
2023-04-21T05:14:35.513Z,1004.74
2023-04-21T05:15:12.454Z,1004.74
2023-04-21T05:15:34.877Z,1004.84
2023-04-21T05:16:05.616Z,1004.84
2023-04-21T05:16:31.603Z,1004.84
2023-04-21T05:17:04.179Z,1004.84
2023-04-21T05:17:41.260Z,1004.84
2023-04-21T05:18:13.491Z,1004.84
2023-04-21T05:18:38.670Z,1004.84
2023-04-21T05:18:59.835Z,1004.84
2023-04-21T05:19:27.465Z,1004.84
2023-04-21T05:20:06.416Z,1005.01
2023-04-21T05:20:38.722Z,1005.01
2023-04-21T05:21:09.387Z,1004.74
2023-04-21T05:21:41.150Z,1004.84
2023-04-21T05:22:08.607Z,1004.84
2023-04-21T05:22:35.357Z,1004.84
2023-04-21T05:22:57.629Z,1004.84
2023-04-21T05:23:27.565Z,1004.84
2023-04-21T05:24:05.515Z,1004.91
2023-04-21T05:24:37.767Z,1004.91
2023-04-21T05:25:10.841Z,1004.74
2023-04-21T05:25:35.490Z,1004.91
2023-04-21T05:26:07.483Z,1004.91
2023-04-21T05:26:35.172Z,1004.84
2023-04-21T05:26:55.624Z,1004.84
2023-04-21T05:27:34.597Z,1004.84
2023-04-21T05:28:05.441Z,1004.84
2023-04-21T05:28:37.523Z,1004.84
2023-04-21T05:29:04.340Z,1004.74
2023-04-21T05:29:35.169Z,1004.74
2023-04-21T05:30:14.384Z,1004.74
2023-04-21T05:30:41.039Z,1004.84
2023-04-21T05:31:17.660Z,1004.84
2023-04-21T05:31:41.632Z,1004.91
2023-04-21T05:32:21.513Z,1004.91
2023-04-21T05:32:38.779Z,1004.74
2023-04-21T05:33:10.368Z,1004.74
2023-04-21T05:33:35.266Z,1004.64
2023-04-21T05:34:08.576Z,1004.64
2023-04-21T05:34:42.073Z,1004.84
2023-04-21T05:35:17.982Z,1004.84
2023-04-21T05:35:40.147Z,1004.64
2023-04-21T05:36:03.543Z,1004.64
2023-04-21T05:36:31.783Z,1004.64
2023-04-21T05:37:03.516Z,1004.91
2023-04-21T05:37:36.922Z,1004.64
2023-04-21T05:38:13.803Z,1004.64
2023-04-21T05:38:41.209Z,1004.74
2023-04-21T05:39:11.466Z,1004.74
2023-04-21T05:39:35.093Z,1004.74
2023-04-21T05:40:06.378Z,1004.74
2023-04-21T05:40:31.621Z,1004.74
2023-04-21T05:41:09.873Z,1004.74
2023-04-21T05:41:41.943Z,1004.91
2023-04-21T05:42:13.778Z,1004.91
2023-04-21T05:42:36.490Z,1004.64
2023-04-21T05:42:55.527Z,1004.64
2023-04-21T05:43:33.576Z,1004.64
2023-04-21T05:43:59.491Z,1004.74
2023-04-21T05:44:31.590Z,1004.74
2023-04-21T05:45:09.901Z,1004.74
2023-04-21T05:45:41.528Z,1004.91
2023-04-21T05:46:07.476Z,1004.91
2023-04-21T05:46:42.156Z,1004.64
2023-04-21T05:47:17.998Z,1004.64
2023-04-21T05:47:40.470Z,1004.74
2023-04-21T05:48:04.116Z,1004.74
2023-04-21T05:48:31.997Z,1004.74
2023-04-21T05:49:03.454Z,1004.64
2023-04-21T05:49:35.924Z,1004.74
2023-04-21T05:50:13.735Z,1004.74
2023-04-21T05:50:36.253Z,1004.74
2023-04-21T05:50:59.715Z,1004.74
2023-04-21T05:51:27.533Z,1004.74
2023-04-21T05:51:59.479Z,1004.74
2023-04-21T05:52:32.512Z,1004.74
2023-04-21T05:53:09.911Z,1004.74
2023-04-21T05:53:35.182Z,1004.84
2023-04-21T05:54:14.125Z,1004.84
2023-04-21T05:54:36.859Z,1004.64
2023-04-21T05:54:55.501Z,1004.64
2023-04-21T05:55:33.877Z,1004.64
2023-04-21T05:56:06.414Z,1004.54
2023-04-21T05:56:37.508Z,1004.54
2023-04-21T05:57:03.515Z,1004.54
2023-04-21T05:57:36.641Z,1004.54
2023-04-21T05:58:13.532Z,1004.54
2023-04-21T05:58:36.235Z,1004.64
2023-04-21T05:58:58.804Z,1004.64
2023-04-21T05:59:33.833Z,1004.64
2023-04-21T05:59:59.486Z,1004.64
2023-04-21T06:00:32.647Z,1004.64
2023-04-21T06:01:09.752Z,1004.84
2023-04-21T06:01:35.258Z,1004.64
2023-04-21T06:02:13.932Z,1004.64
2023-04-21T06:02:41.057Z,1004.74
2023-04-21T06:03:18.797Z,1004.74
2023-04-21T06:03:35.667Z,1004.64
2023-04-21T06:03:59.638Z,1004.64
2023-04-21T06:04:38.149Z,1004.64
2023-04-21T06:05:10.088Z,1004.64
2023-04-21T06:05:35.940Z,1004.74
2023-04-21T06:06:13.415Z,1004.74
2023-04-21T06:06:40.983Z,1004.64
2023-04-21T06:07:11.608Z,1004.64